createdAt,value
2022-12-13T00:03:06.649Z,4056.5
2022-12-13T00:08:41.791Z,4061.2
2022-12-13T00:14:17.068Z,4055
2022-12-13T00:19:52.035Z,4059.2
2022-12-13T00:25:27.434Z,4055.3
2022-12-13T00:32:02.713Z,4055.5
2022-12-13T00:37:38.305Z,4059
2022-12-13T00:43:13.369Z,4058.4
2022-12-13T00:48:48.422Z,4056.9
2022-12-13T00:54:28.961Z,4060.2
2022-12-13T01:00:04.143Z,4052.7
2022-12-13T01:06:18.582Z,4058.2
2022-12-13T01:12:02.683Z,4057
2022-12-13T01:17:41.421Z,4057.9
2022-12-13T01:23:16.650Z,4059.2
2022-12-13T01:28:51.869Z,4056.5
2022-12-13T01:34:28.138Z,4055.3
2022-12-13T01:40:18.071Z,4058
2022-12-13T01:45:54.012Z,4055.8
2022-12-13T01:51:29.735Z,4055.8
2022-12-13T01:57:04.765Z,4054.8
2022-12-13T02:02:42.964Z,4057
2022-12-13T02:08:18.638Z,4055
2022-12-13T02:13:58.953Z,4055.5
2022-12-13T02:19:34.964Z,4056.3
2022-12-13T02:25:10.253Z,4053.3
2022-12-13T02:30:50.328Z,4054.3
2022-12-13T02:36:26.852Z,4053.2
2022-12-13T02:42:02.222Z,4055.3
2022-12-13T02:47:37.302Z,4051.7
2022-12-13T02:53:13.140Z,4054.7
2022-12-13T02:58:48.043Z,4052.8
2022-12-13T03:04:27.971Z,4049.1
2022-12-13T03:10:03.063Z,4053
2022-12-13T03:15:38.990Z,4052.3
2022-12-13T03:21:14.345Z,4050.1
2022-12-13T03:26:50.730Z,4051.8
2022-12-13T03:32:26.047Z,4047.3
2022-12-13T03:38:01.117Z,4050.8
2022-12-13T03:43:36.624Z,4050.8
2022-12-13T03:49:18.786Z,4051.8
2022-12-13T03:54:53.897Z,4049.6
2022-12-13T04:00:29.359Z,4050.1
2022-12-13T04:06:04.599Z,4047.3
2022-12-13T04:11:44.484Z,4048.3
2022-12-13T04:17:19.739Z,4048
2022-12-13T04:22:55.012Z,4046.6
2022-12-13T04:28:30.661Z,4049
2022-12-13T04:34:05.963Z,4050.1
2022-12-13T04:39:49.065Z,4049.1
2022-12-13T04:45:24.636Z,4048.6
2022-12-13T04:51:02.738Z,4046.8
2022-12-13T04:56:38.037Z,4045.8
2022-12-13T05:02:25.216Z,4048.8
2022-12-13T05:08:01.837Z,4049
2022-12-13T05:13:37.571Z,4046
2022-12-13T05:19:12.919Z,4046.5
2022-12-13T05:24:48.811Z,4044.6
2022-12-13T05:30:24.290Z,4045.5
2022-12-13T05:36:03.641Z,4047.1
2022-12-13T05:41:38.630Z,4049
2022-12-13T05:47:13.429Z,4044.5
2022-12-13T05:52:49.756Z,4046
2022-12-13T05:58:24.513Z,4044.1
2022-12-13T06:04:00.166Z,4044.6
2022-12-13T06:09:41.676Z,4042.3
2022-12-13T06:15:25.177Z,4043.1
2022-12-13T06:21:10.759Z,4044.1
2022-12-13T06:26:47.541Z,4042.9
2022-12-13T06:32:22.700Z,4043.4
2022-12-13T06:38:31.285Z,4042.6
2022-12-13T06:44:08.841Z,4045.8
2022-12-13T06:49:47.808Z,4042.1
2022-12-13T06:55:25.498Z,4043.1
2022-12-13T07:01:03.769Z,4041.9
2022-12-13T07:06:38.917Z,4043.6
2022-12-13T07:12:13.984Z,4041.9
2022-12-13T07:17:49.173Z,4044.5
2022-12-13T07:23:25.920Z,4041.4
2022-12-13T07:29:01.103Z,4042.3
2022-12-13T07:34:45.731Z,4042.4
2022-12-13T07:40:20.765Z,4041.4
2022-12-13T07:45:56.669Z,4042.4
2022-12-13T07:51:35.705Z,4043.3
2022-12-13T07:57:11.599Z,4042.4
2022-12-13T08:02:46.768Z,4040.9
2022-12-13T08:08:33.928Z,4042.1
2022-12-13T08:14:09.210Z,4040.9
2022-12-13T08:19:44.235Z,4040.6
2022-12-13T08:25:22.533Z,4042.8
2022-12-13T08:30:59.147Z,4047
2022-12-13T08:36:36.973Z,4040.8
2022-12-13T08:42:29.949Z,4053.5
2022-12-13T08:48:05.324Z,4071.8
2022-12-13T08:53:46.695Z,4052.5
2022-12-13T08:59:21.469Z,4056.9
2022-12-13T09:04:56.499Z,4073.9
2022-12-13T09:10:39.872Z,4108.6
2022-12-13T09:16:26.917Z,4066.6
2022-12-13T09:22:04.543Z,4067.9
2022-12-13T09:27:41.352Z,4071.9
2022-12-13T09:33:42.812Z,4069.1
2022-12-13T09:39:18.563Z,4072.8
2022-12-13T09:45:05.586Z,4069.1
2022-12-13T09:52:04.483Z,4067.7
2022-12-13T09:57:49.814Z,4070.9
2022-12-13T10:03:26.861Z,4081.3
2022-12-13T10:09:10.365Z,4100.2
2022-12-13T10:14:50.355Z,4079.5
2022-12-13T10:20:27.161Z,4073.6
2022-12-13T10:26:05.454Z,4084
2022-12-13T10:31:41.917Z,4085.3
2022-12-13T10:37:26.754Z,4094.5
2022-12-13T10:43:02.112Z,4120
2022-12-13T10:48:40.889Z,4138.3
2022-12-13T10:54:38.599Z,4132.6
2022-12-13T11:00:25.081Z,4109.9
2022-12-13T11:06:00.461Z,4093.5
2022-12-13T11:11:35.504Z,4100.9
2022-12-13T11:17:10.970Z,4112.6
2022-12-13T11:22:46.060Z,4116.6
2022-12-13T11:28:28.910Z,4118.3
2022-12-13T11:34:04.963Z,4122.3
2022-12-13T11:39:40.182Z,4108.1
2022-12-13T11:45:24.891Z,4107.9
2022-12-13T11:50:59.961Z,4110.3
2022-12-13T11:56:40.363Z,4108.9
2022-12-13T12:02:19.345Z,4106.6
2022-12-13T12:08:47.051Z,4105.8
2022-12-13T12:14:34.096Z,4115.6
2022-12-13T12:20:09.952Z,4112.8
2022-12-13T12:26:05.716Z,4114.3
2022-12-13T12:31:52.377Z,4111.5
2022-12-13T12:37:30.869Z,4119.7
2022-12-13T12:44:16.927Z,4122.5
2022-12-13T12:50:01.666Z,4124.2
2022-12-13T12:55:45.601Z,4134.1
2022-12-13T13:01:44.577Z,4128.7
2022-12-13T13:07:25.444Z,4114.5
2022-12-13T13:13:14.004Z,4113.8
2022-12-13T13:18:59.698Z,4115.1
2022-12-13T13:24:36.975Z,4121.3
2022-12-13T13:30:12.157Z,4111.3
2022-12-13T13:35:47.554Z,4122.2
2022-12-13T13:41:36.270Z,4122.8
2022-12-13T13:47:33.266Z,4119.2
2022-12-13T13:53:20.080Z,4116.6
2022-12-13T13:58:56.816Z,4115.8
2022-12-13T14:04:56.947Z,4116.8
2022-12-13T14:10:41.653Z,4114.3
2022-12-13T14:16:37.521Z,4118.2
2022-12-13T14:22:16.243Z,4124.2
2022-12-13T14:27:51.158Z,4128.4
2022-12-13T14:33:30.252Z,4133.1
2022-12-13T14:39:26.847Z,4128.9
2022-12-13T14:45:03.047Z,4117.8
2022-12-13T14:50:38.577Z,4122.8
2022-12-13T14:56:33.362Z,4117.8
2022-12-13T15:02:13.875Z,4118.5
2022-12-13T15:07:49.873Z,4115.1
2022-12-13T15:13:31.437Z,4110.1
2022-12-13T15:19:48.310Z,4104.9
2022-12-13T15:25:41.415Z,4106.8
2022-12-13T15:32:07.516Z,4108.3
2022-12-13T15:37:46.785Z,4107.1
2022-12-13T15:43:21.836Z,4105.4
2022-12-13T15:49:19.112Z,4103.9
2022-12-13T15:55:02.519Z,4105.6
2022-12-13T16:00:39.636Z,4105.4
2022-12-13T16:06:15.357Z,4104.1
2022-12-13T16:11:50.550Z,4102.6
2022-12-13T16:17:26.003Z,4102.6
2022-12-13T16:23:27.711Z,4103.2
2022-12-13T16:29:26.486Z,4100.9
2022-12-13T16:35:09.785Z,4102.7
2022-12-13T16:41:44.602Z,4099.9
2022-12-13T16:47:51.848Z,4097
2022-12-13T16:53:30.146Z,4099.4
2022-12-13T16:59:15.335Z,4097.7
2022-12-13T17:04:51.004Z,4095.7
2022-12-13T17:10:26.406Z,4097.1
2022-12-13T17:16:01.422Z,4095
2022-12-13T17:21:42.737Z,4097.4
2022-12-13T17:27:23.666Z,4096.9
2022-12-13T17:33:02.701Z,4098.4
2022-12-13T17:38:46.576Z,4095.2
2022-12-13T17:44:23.067Z,4096.2
2022-12-13T17:50:01.668Z,4097.2
2022-12-13T17:55:41.054Z,4095.7
2022-12-13T18:01:28.334Z,4096
2022-12-13T18:07:04.194Z,4096.7
2022-12-13T18:12:42.202Z,4096.2
2022-12-13T18:18:17.180Z,4093.9
2022-12-13T18:24:15.037Z,4095.9
2022-12-13T18:29:59.805Z,4094.2
2022-12-13T18:35:36.866Z,4092.7
2022-12-13T18:41:11.993Z,4093.5
2022-12-13T18:47:08.800Z,4091.5
2022-12-13T18:52:41.680Z,4093.5
2022-12-13T18:58:18.209Z,4094
2022-12-13T19:03:57.315Z,4094
2022-12-13T19:09:38.697Z,4094.2
2022-12-13T19:15:14.157Z,4091.2
2022-12-13T19:20:52.102Z,4091.7
2022-12-13T19:26:28.084Z,4091
2022-12-13T19:32:04.683Z,4089.8
2022-12-13T19:37:43.425Z,4089.8
2022-12-13T19:43:18.641Z,4087.7
2022-12-13T19:49:15.347Z,4087.5
2022-12-13T19:54:49.389Z,4090.2
2022-12-13T20:00:26.334Z,4090.4
2022-12-13T20:06:11.786Z,4091
2022-12-13T20:12:01.920Z,4089.2
2022-12-13T20:17:37.565Z,4087.8
2022-12-13T20:23:15.759Z,4088.2
2022-12-13T20:29:00.083Z,4089.8
2022-12-13T20:34:36.079Z,4086.2
2022-12-13T20:40:28.525Z,4086.5
2022-12-13T20:46:04.281Z,4085.5
2022-12-13T20:51:43.793Z,4084.3
2022-12-13T20:57:21.338Z,4084.5
2022-12-13T21:02:56.424Z,4083.5
2022-12-13T21:08:34.308Z,4086
2022-12-13T21:14:25.367Z,4087.7
2022-12-13T21:20:03.433Z,4084.7
2022-12-13T21:25:48.948Z,4086
2022-12-13T21:31:30.804Z,4083.5
2022-12-13T21:37:07.797Z,4080.5
2022-12-13T21:42:46.619Z,4082.1
2022-12-13T21:48:48.382Z,4080.1
2022-12-13T21:54:30.613Z,4081.8
2022-12-13T22:00:12.983Z,4081.6
2022-12-13T22:05:48.126Z,4079.6
2022-12-13T22:11:32.957Z,4078.8
2022-12-13T22:17:36.596Z,4081.1
2022-12-13T22:23:20.650Z,4078.8
2022-12-13T22:28:56.099Z,4078.1
2022-12-13T22:34:39.863Z,4076.6
2022-12-13T22:40:15.295Z,4077.6
2022-12-13T22:45:50.965Z,4077.3
2022-12-13T22:51:35.695Z,4076.6
2022-12-13T22:57:14.321Z,4076.4
2022-12-13T23:02:49.794Z,4076.3
2022-12-13T23:08:29.384Z,4076.6
2022-12-13T23:14:04.802Z,4074.4
2022-12-13T23:19:54.698Z,4073.4
2022-12-13T23:25:31.508Z,4075.8
2022-12-13T23:31:10.179Z,4074.1
2022-12-13T23:36:49.834Z,4072.3
2022-12-13T23:43:08.873Z,4075.3
2022-12-13T23:49:06.078Z,4071.1
2022-12-13T23:54:45.994Z,4072.6
